sensor_id;sensor_type;location;lat;lon;timestamp;P1;P2;P0
68116;PMS7003;54909;54.464;18.498;2024-01-06T00:00:16;112;92;52
68116;PMS7003;54909;54.464;18.498;2024-01-06T00:03:17;134;109;59
68116;PMS7003;54909;54.464;18.498;2024-01-06T00:06:18;107;92;54
68116;PMS7003;54909;54.464;18.498;2024-01-06T00:09:19;117;95;53
68116;PMS7003;54909;54.464;18.498;2024-01-06T00:12:20;106;84;49
68116;PMS7003;54909;54.464;18.498;2024-01-06T00:15:22;96;72;46
68116;PMS7003;54909;54.464;18.498;2024-01-06T00:18:23;94;70;43
68116;PMS7003;54909;54.464;18.498;2024-01-06T00:21:24;97;71;43
68116;PMS7003;54909;54.464;18.498;2024-01-06T00:24:29;83;63;38
68116;PMS7003;54909;54.464;18.498;2024-01-06T00:27:30;88;65;40
68116;PMS7003;54909;54.464;18.498;2024-01-06T00:30:31;85;64;39
68116;PMS7003;54909;54.464;18.498;2024-01-06T00:33:41;66;51;35
68116;PMS7003;54909;54.464;18.498;2024-01-06T00:36:42;83;61;38
68116;PMS7003;54909;54.464;18.498;2024-01-06T00:39:43;75;59;37
68116;PMS7003;54909;54.464;18.498;2024-01-06T00:42:53;80;60;36
68116;PMS7003;54909;54.464;18.498;2024-01-06T00:45:54;80;60;39
68116;PMS7003;54909;54.464;18.498;2024-01-06T00:48:55;96;72;45
68116;PMS7003;54909;54.464;18.498;2024-01-06T00:52:05;98;79;47
68116;PMS7003;54909;54.464;18.498;2024-01-06T00:55:07;99;81;49
68116;PMS7003;54909;54.464;18.498;2024-01-06T00:58:08;100;76;44
68116;PMS7003;54909;54.464;18.498;2024-01-06T01:01:18;102;81;49
68116;PMS7003;54909;54.464;18.498;2024-01-06T01:04:19;91;67;43
68116;PMS7003;54909;54.464;18.498;2024-01-06T01:07:20;81;60;37
68116;PMS7003;54909;54.464;18.498;2024-01-06T01:10:29;89;66;40
68116;PMS7003;54909;54.464;18.498;2024-01-06T01:13:30;80;59;38
68116;PMS7003;54909;54.464;18.498;2024-01-06T01:16:31;85;63;39
68116;PMS7003;54909;54.464;18.498;2024-01-06T01:19:41;82;61;37
68116;PMS7003;54909;54.464;18.498;2024-01-06T01:22:42;91;68;41
68116;PMS7003;54909;54.464;18.498;2024-01-06T01:25:43;90;67;41
68116;PMS7003;54909;54.464;18.498;2024-01-06T01:28:52;83;63;39
68116;PMS7003;54909;54.464;18.498;2024-01-06T01:31:53;85;63;39
68116;PMS7003;54909;54.464;18.498;2024-01-06T01:34:54;85;63;39
68116;PMS7003;54909;54.464;18.498;2024-01-06T01:37:55;89;67;41
68116;PMS7003;54909;54.464;18.498;2024-01-06T01:40:57;88;66;42
68116;PMS7003;54909;54.464;18.498;2024-01-06T01:44:00;72;55;36
68116;PMS7003;54909;54.464;18.498;2024-01-06T01:47:02;83;60;38
68116;PMS7003;54909;54.464;18.498;2024-01-06T01:50:05;84;63;41
68116;PMS7003;54909;54.464;18.498;2024-01-06T01:53:11;71;55;34
68116;PMS7003;54909;54.464;18.498;2024-01-06T01:56:14;71;54;35
68116;PMS7003;54909;54.464;18.498;2024-01-06T01:59:18;73;56;34
68116;PMS7003;54909;54.464;18.498;2024-01-06T02:02:24;73;55;34
68116;PMS7003;54909;54.464;18.498;2024-01-06T02:05:26;32;28;20
68116;PMS7003;54909;54.464;18.498;2024-01-06T02:08:27;47;37;23
68116;PMS7003;54909;54.464;18.498;2024-01-06T02:11:36;48;38;23
68116;PMS7003;54909;54.464;18.498;2024-01-06T02:14:37;39;31;20
68116;PMS7003;54909;54.464;18.498;2024-01-06T02:17:38;24;21;12
68116;PMS7003;54909;54.464;18.498;2024-01-06T02:20:47;15;13;10
68116;PMS7003;54909;54.464;18.498;2024-01-06T02:23:51;24;21;11
68116;PMS7003;54909;54.464;18.498;2024-01-06T02:26:52;14;13;9
68116;PMS7003;54909;54.464;18.498;2024-01-06T02:29:59;19;15;12
68116;PMS7003;54909;54.464;18.498;2024-01-06T02:33:01;20;18;11
68116;PMS7003;54909;54.464;18.498;2024-01-06T02:36:02;17;13;10
68116;PMS7003;54909;54.464;18.498;2024-01-06T02:39:10;23;20;11
68116;PMS7003;54909;54.464;18.498;2024-01-06T02:42:11;16;14;10
68116;PMS7003;54909;54.464;18.498;2024-01-06T02:45:12;14;10;8
68116;PMS7003;54909;54.464;18.498;2024-01-06T02:48:21;14;12;11
68116;PMS7003;54909;54.464;18.498;2024-01-06T02:51:22;15;11;9
68116;PMS7003;54909;54.464;18.498;2024-01-06T02:54:23;7;6;4
68116;PMS7003;54909;54.464;18.498;2024-01-06T02:57:31;10;9;7
68116;PMS7003;54909;54.464;18.498;2024-01-06T03:00:32;8;6;5
68116;PMS7003;54909;54.464;18.498;2024-01-06T03:03:33;5;5;4
68116;PMS7003;54909;54.464;18.498;2024-01-06T03:06:40;6;4;3
68116;PMS7003;54909;54.464;18.498;2024-01-06T03:09:41;6;5;5
68116;PMS7003;54909;54.464;18.498;2024-01-06T03:12:43;8;7;5
68116;PMS7003;54909;54.464;18.498;2024-01-06T03:15:50;9;9;7
68116;PMS7003;54909;54.464;18.498;2024-01-06T03:18:51;11;10;7
68116;PMS7003;54909;54.464;18.498;2024-01-06T03:21:53;9;6;5
68116;PMS7003;54909;54.464;18.498;2024-01-06T03:25:01;6;5;3
68116;PMS7003;54909;54.464;18.498;2024-01-06T03:28:03;6;6;5
68116;PMS7003;54909;54.464;18.498;2024-01-06T03:31:04;6;6;4
68116;PMS7003;54909;54.464;18.498;2024-01-06T03:34:11;6;5;4
68116;PMS7003;54909;54.464;18.498;2024-01-06T03:37:12;7;6;5
68116;PMS7003;54909;54.464;18.498;2024-01-06T03:40:13;6;5;5
68116;PMS7003;54909;54.464;18.498;2024-01-06T03:43:20;8;7;4
68116;PMS7003;54909;54.464;18.498;2024-01-06T03:46:22;10;9;7
68116;PMS7003;54909;54.464;18.498;2024-01-06T03:49:24;11;8;5
68116;PMS7003;54909;54.464;18.498;2024-01-06T03:52:30;9;7;5
68116;PMS7003;54909;54.464;18.498;2024-01-06T03:55:31;5;5;5
68116;PMS7003;54909;54.464;18.498;2024-01-06T03:58:33;4;3;2
68116;PMS7003;54909;54.464;18.498;2024-01-06T04:01:40;3;3;2
68116;PMS7003;54909;54.464;18.498;2024-01-06T04:04:41;3;3;3
68116;PMS7003;54909;54.464;18.498;2024-01-06T04:07:42;5;4;2
68116;PMS7003;54909;54.464;18.498;2024-01-06T04:10:50;5;2;2
68116;PMS7003;54909;54.464;18.498;2024-01-06T04:13:51;1;1;1
68116;PMS7003;54909;54.464;18.498;2024-01-06T04:16:52;1;1;1
68116;PMS7003;54909;54.464;18.498;2024-01-06T04:19:59;1;1;1
68116;PMS7003;54909;54.464;18.498;2024-01-06T04:23:00;5;3;2
68116;PMS7003;54909;54.464;18.498;2024-01-06T04:26:01;2;0;0
68116;PMS7003;54909;54.464;18.498;2024-01-06T04:29:09;1;1;0
68116;PMS7003;54909;54.464;18.498;2024-01-06T04:32:10;1;1;1
68116;PMS7003;54909;54.464;18.498;2024-01-06T04:35:11;1;1;1
68116;PMS7003;54909;54.464;18.498;2024-01-06T04:38:18;1;1;1
68116;PMS7003;54909;54.464;18.498;2024-01-06T04:41:20;0;0;0
68116;PMS7003;54909;54.464;18.498;2024-01-06T04:44:21;3;1;1
68116;PMS7003;54909;54.464;18.498;2024-01-06T04:47:28;1;1;1
68116;PMS7003;54909;54.464;18.498;2024-01-06T04:50:31;1;1;1
68116;PMS7003;54909;54.464;18.498;2024-01-06T04:53:32;2;1;1
68116;PMS7003;54909;54.464;18.498;2024-01-06T04:56:38;0;0;0
68116;PMS7003;54909;54.464;18.498;2024-01-06T04:59:40;1;1;1
68116;PMS7003;54909;54.464;18.498;2024-01-06T05:02:41;0;0;0
68116;PMS7003;54909;54.464;18.498;2024-01-06T05:05:47;0;0;0
68116;PMS7003;54909;54.464;18.498;2024-01-06T05:08:48;1;0;0
68116;PMS7003;54909;54.464;18.498;2024-01-06T05:11:50;0;0;0
68116;PMS7003;54909;54.464;18.498;2024-01-06T05:14:57;1;0;0
68116;PMS7003;54909;54.464;18.498;2024-01-06T05:17:58;0;0;0
68116;PMS7003;54909;54.464;18.498;2024-01-06T05:20:59;0;0;0
68116;PMS7003;54909;54.464;18.498;2024-01-06T05:24:07;1;1;1
68116;PMS7003;54909;54.464;18.498;2024-01-06T05:27:08;1;1;1
68116;PMS7003;54909;54.464;18.498;2024-01-06T05:30:09;2;2;2
68116;PMS7003;54909;54.464;18.498;2024-01-06T05:33:16;4;3;3
68116;PMS7003;54909;54.464;18.498;2024-01-06T05:36:20;2;1;1
68116;PMS7003;54909;54.464;18.498;2024-01-06T05:39:21;2;1;1
68116;PMS7003;54909;54.464;18.498;2024-01-06T05:42:26;2;2;2
68116;PMS7003;54909;54.464;18.498;2024-01-06T05:45:27;3;2;2
68116;PMS7003;54909;54.464;18.498;2024-01-06T05:48:29;2;1;1
68116;PMS7003;54909;54.464;18.498;2024-01-06T05:51:35;1;1;1
68116;PMS7003;54909;54.464;18.498;2024-01-06T05:54:39;2;2;2
68116;PMS7003;54909;54.464;18.498;2024-01-06T05:57:42;0;0;0
68116;PMS7003;54909;54.464;18.498;2024-01-06T06:00:45;1;1;1
68116;PMS7003;54909;54.464;18.498;2024-01-06T06:03:47;1;1;1
68116;PMS7003;54909;54.464;18.498;2024-01-06T06:06:50;2;1;1
68116;PMS7003;54909;54.464;18.498;2024-01-06T06:09:55;3;2;2
68116;PMS7003;54909;54.464;18.498;2024-01-06T06:12:56;2;1;1
68116;PMS7003;54909;54.464;18.498;2024-01-06T06:15:57;1;1;1
68116;PMS7003;54909;54.464;18.498;2024-01-06T06:19:04;1;1;1
68116;PMS7003;54909;54.464;18.498;2024-01-06T06:22:07;2;2;2
68116;PMS7003;54909;54.464;18.498;2024-01-06T06:25:09;1;1;1
68116;PMS7003;54909;54.464;18.498;2024-01-06T06:28:14;4;1;1
68116;PMS7003;54909;54.464;18.498;2024-01-06T06:31:15;1;1;1
68116;PMS7003;54909;54.464;18.498;2024-01-06T06:34:16;2;1;1
68116;PMS7003;54909;54.464;18.498;2024-01-06T06:37:24;1;1;1
68116;PMS7003;54909;54.464;18.498;2024-01-06T06:40:25;2;2;1
68116;PMS7003;54909;54.464;18.498;2024-01-06T06:43:26;1;1;1
68116;PMS7003;54909;54.464;18.498;2024-01-06T06:46:33;2;2;1
68116;PMS7003;54909;54.464;18.498;2024-01-06T06:49:34;2;2;1
68116;PMS7003;54909;54.464;18.498;2024-01-06T06:52:36;2;1;1
68116;PMS7003;54909;54.464;18.498;2024-01-06T06:55:43;1;1;1
68116;PMS7003;54909;54.464;18.498;2024-01-06T06:58:44;0;0;0
68116;PMS7003;54909;54.464;18.498;2024-01-06T07:01:45;2;1;1
68116;PMS7003;54909;54.464;18.498;2024-01-06T07:04:53;0;0;0
68116;PMS7003;54909;54.464;18.498;2024-01-06T07:07:54;2;1;1
68116;PMS7003;54909;54.464;18.498;2024-01-06T07:10:55;1;1;1
68116;PMS7003;54909;54.464;18.498;2024-01-06T07:14:02;1;1;1
68116;PMS7003;54909;54.464;18.498;2024-01-06T07:17:04;3;2;2
68116;PMS7003;54909;54.464;18.498;2024-01-06T07:20:06;2;1;1
68116;PMS7003;54909;54.464;18.498;2024-01-06T07:23:12;1;1;1
68116;PMS7003;54909;54.464;18.498;2024-01-06T07:26:14;0;0;0
68116;PMS7003;54909;54.464;18.498;2024-01-06T07:29:15;1;1;1
68116;PMS7003;54909;54.464;18.498;2024-01-06T07:32:24;1;1;1
68116;PMS7003;54909;54.464;18.498;2024-01-06T07:35:26;1;1;1
68116;PMS7003;54909;54.464;18.498;2024-01-06T07:38:29;1;1;1
68116;PMS7003;54909;54.464;18.498;2024-01-06T07:41:31;1;1;1
68116;PMS7003;54909;54.464;18.498;2024-01-06T07:44:33;2;2;1
68116;PMS7003;54909;54.464;18.498;2024-01-06T07:47:34;3;2;1
68116;PMS7003;54909;54.464;18.498;2024-01-06T07:50:41;1;1;1
68116;PMS7003;54909;54.464;18.498;2024-01-06T07:53:42;4;3;1
68116;PMS7003;54909;54.464;18.498;2024-01-06T07:56:43;2;2;2
68116;PMS7003;54909;54.464;18.498;2024-01-06T07:59:50;5;5;3
68116;PMS7003;54909;54.464;18.498;2024-01-06T08:02:52;5;4;3
68116;PMS7003;54909;54.464;18.498;2024-01-06T08:05:53;5;3;2
68116;PMS7003;54909;54.464;18.498;2024-01-06T08:09:00;1;0;0
68116;PMS7003;54909;54.464;18.498;2024-01-06T08:12:01;1;1;1
68116;PMS7003;54909;54.464;18.498;2024-01-06T08:15:03;2;1;1
68116;PMS7003;54909;54.464;18.498;2024-01-06T08:18:10;3;2;2
68116;PMS7003;54909;54.464;18.498;2024-01-06T08:21:11;5;5;4
68116;PMS7003;54909;54.464;18.498;2024-01-06T08:24:12;5;4;3
68116;PMS7003;54909;54.464;18.498;2024-01-06T08:27:19;3;3;3
68116;PMS7003;54909;54.464;18.498;2024-01-06T08:30:23;5;4;3
68116;PMS7003;54909;54.464;18.498;2024-01-06T08:33:25;10;6;3
68116;PMS7003;54909;54.464;18.498;2024-01-06T08:36:29;5;5;3
68116;PMS7003;54909;54.464;18.498;2024-01-06T08:39:30;2;2;2
68116;PMS7003;54909;54.464;18.498;2024-01-06T08:42:31;3;3;2
68116;PMS7003;54909;54.464;18.498;2024-01-06T08:45:39;2;2;2
68116;PMS7003;54909;54.464;18.498;2024-01-06T08:48:40;1;0;0
68116;PMS7003;54909;54.464;18.498;2024-01-06T08:51:41;2;2;2
68116;PMS7003;54909;54.464;18.498;2024-01-06T08:54:48;3;2;2
68116;PMS7003;54909;54.464;18.498;2024-01-06T08:57:50;2;2;2
68116;PMS7003;54909;54.464;18.498;2024-01-06T09:00:51;3;2;2
68116;PMS7003;54909;54.464;18.498;2024-01-06T09:03:58;2;2;2
68116;PMS7003;54909;54.464;18.498;2024-01-06T09:06:59;2;2;2
68116;PMS7003;54909;54.464;18.498;2024-01-06T09:10:00;7;3;2
68116;PMS7003;54909;54.464;18.498;2024-01-06T09:13:08;2;2;1
68116;PMS7003;54909;54.464;18.498;2024-01-06T09:16:09;5;4;3
68116;PMS7003;54909;54.464;18.498;2024-01-06T09:19:11;8;5;4
68116;PMS7003;54909;54.464;18.498;2024-01-06T09:22:17;7;6;5
68116;PMS7003;54909;54.464;18.498;2024-01-06T09:25:18;11;6;5
68116;PMS7003;54909;54.464;18.498;2024-01-06T09:28:20;7;6;5
68116;PMS7003;54909;54.464;18.498;2024-01-06T09:31:27;3;2;2
68116;PMS7003;54909;54.464;18.498;2024-01-06T09:34:28;4;2;2
68116;PMS7003;54909;54.464;18.498;2024-01-06T09:37:29;6;3;2
68116;PMS7003;54909;54.464;18.498;2024-01-06T09:40:41;1;1;1
68116;PMS7003;54909;54.464;18.498;2024-01-06T09:43:46;3;2;2
68116;PMS7003;54909;54.464;18.498;2024-01-06T09:46:48;2;1;1
68116;PMS7003;54909;54.464;18.498;2024-01-06T09:49:50;2;2;2
68116;PMS7003;54909;54.464;18.498;2024-01-06T09:52:55;3;1;1
68116;PMS7003;54909;54.464;18.498;2024-01-06T09:56:05;1;1;1
68116;PMS7003;54909;54.464;18.498;2024-01-06T09:59:08;3;1;0
68116;PMS7003;54909;54.464;18.498;2024-01-06T10:02:09;3;3;2
68116;PMS7003;54909;54.464;18.498;2024-01-06T10:05:13;2;2;1
68116;PMS7003;54909;54.464;18.498;2024-01-06T10:08:16;2;2;2
68116;PMS7003;54909;54.464;18.498;2024-01-06T10:11:27;1;1;1
68116;PMS7003;54909;54.464;18.498;2024-01-06T10:14:25;3;2;2
68116;PMS7003;54909;54.464;18.498;2024-01-06T10:17:26;6;6;5
68116;PMS7003;54909;54.464;18.498;2024-01-06T10:20:28;5;5;4
68116;PMS7003;54909;54.464;18.498;2024-01-06T10:23:30;4;4;3
68116;PMS7003;54909;54.464;18.498;2024-01-06T10:26:33;7;7;6
68116;PMS7003;54909;54.464;18.498;2024-01-06T10:29:35;6;6;5
68116;PMS7003;54909;54.464;18.498;2024-01-06T10:32:36;8;6;5
68116;PMS7003;54909;54.464;18.498;2024-01-06T10:35:38;1;1;1
68116;PMS7003;54909;54.464;18.498;2024-01-06T10:38:40;2;1;1
68116;PMS7003;54909;54.464;18.498;2024-01-06T10:41:41;3;2;2
68116;PMS7003;54909;54.464;18.498;2024-01-06T10:44:47;2;1;1
68116;PMS7003;54909;54.464;18.498;2024-01-06T10:47:49;7;7;4
68116;PMS7003;54909;54.464;18.498;2024-01-06T10:50:53;12;9;6
68116;PMS7003;54909;54.464;18.498;2024-01-06T10:53:57;7;4;3
68116;PMS7003;54909;54.464;18.498;2024-01-06T10:57:01;6;6;4
68116;PMS7003;54909;54.464;18.498;2024-01-06T11:00:04;20;14;11
68116;PMS7003;54909;54.464;18.498;2024-01-06T11:03:07;16;12;9
68116;PMS7003;54909;54.464;18.498;2024-01-06T11:06:10;9;9;7
68116;PMS7003;54909;54.464;18.498;2024-01-06T11:12:25;5;4;3
68116;PMS7003;54909;54.464;18.498;2024-01-06T11:15:48;3;3;2
68116;PMS7003;54909;54.464;18.498;2024-01-06T11:18:44;4;3;3
68116;PMS7003;54909;54.464;18.498;2024-01-06T11:21:46;3;1;1
68116;PMS7003;54909;54.464;18.498;2024-01-06T11:24:48;3;3;2
68116;PMS7003;54909;54.464;18.498;2024-01-06T11:27:53;12;9;5
68116;PMS7003;54909;54.464;18.498;2024-01-06T11:34:17;8;7;6
68116;PMS7003;54909;54.464;18.498;2024-01-06T11:40:39;1;1;1
68116;PMS7003;54909;54.464;18.498;2024-01-06T11:43:41;0;0;0
68116;PMS7003;54909;54.464;18.498;2024-01-06T11:46:43;4;3;3
68116;PMS7003;54909;54.464;18.498;2024-01-06T11:49:46;2;2;2
68116;PMS7003;54909;54.464;18.498;2024-01-06T11:52:51;8;8;6
68116;PMS7003;54909;54.464;18.498;2024-01-06T11:55:52;6;5;3
68116;PMS7003;54909;54.464;18.498;2024-01-06T11:58:53;5;4;3
68116;PMS7003;54909;54.464;18.498;2024-01-06T12:01:56;5;3;3
68116;PMS7003;54909;54.464;18.498;2024-01-06T12:04:57;3;2;2
68116;PMS7003;54909;54.464;18.498;2024-01-06T12:07:59;6;5;3
68116;PMS7003;54909;54.464;18.498;2024-01-06T12:11:03;4;4;3
68116;PMS7003;54909;54.464;18.498;2024-01-06T12:14:05;2;2;1
68116;PMS7003;54909;54.464;18.498;2024-01-06T12:17:06;8;8;7
68116;PMS7003;54909;54.464;18.498;2024-01-06T12:20:12;15;13;11
68116;PMS7003;54909;54.464;18.498;2024-01-06T12:23:23;4;4;3
68116;PMS7003;54909;54.464;18.498;2024-01-06T12:26:28;1;1;1
68116;PMS7003;54909;54.464;18.498;2024-01-06T12:29:30;2;2;1
68116;PMS7003;54909;54.464;18.498;2024-01-06T12:32:32;3;2;1
68116;PMS7003;54909;54.464;18.498;2024-01-06T12:35:34;1;1;0
68116;PMS7003;54909;54.464;18.498;2024-01-06T12:38:36;1;1;1
68116;PMS7003;54909;54.464;18.498;2024-01-06T12:41:38;13;8;6
68116;PMS7003;54909;54.464;18.498;2024-01-06T12:44:43;33;27;16
68116;PMS7003;54909;54.464;18.498;2024-01-06T12:47:44;14;11;8
68116;PMS7003;54909;54.464;18.498;2024-01-06T12:50:45;21;18;15
68116;PMS7003;54909;54.464;18.498;2024-01-06T12:53:46;30;27;17
68116;PMS7003;54909;54.464;18.498;2024-01-06T12:56:52;16;16;12
68116;PMS7003;54909;54.464;18.498;2024-01-06T12:59:53;42;37;25
68116;PMS7003;54909;54.464;18.498;2024-01-06T13:02:55;21;16;12
68116;PMS7003;54909;54.464;18.498;2024-01-06T13:06:03;11;10;8
68116;PMS7003;54909;54.464;18.498;2024-01-06T13:09:04;40;30;16
68116;PMS7003;54909;54.464;18.498;2024-01-06T13:12:07;14;14;11
68116;PMS7003;54909;54.464;18.498;2024-01-06T13:15:14;15;12;9
68116;PMS7003;54909;54.464;18.498;2024-01-06T13:18:15;16;12;9
68116;PMS7003;54909;54.464;18.498;2024-01-06T13:21:19;24;22;14
68116;PMS7003;54909;54.464;18.498;2024-01-06T13:24:25;15;14;11
68116;PMS7003;54909;54.464;18.498;2024-01-06T13:27:26;11;6;6
68116;PMS7003;54909;54.464;18.498;2024-01-06T13:30:30;14;12;11
68116;PMS7003;54909;54.464;18.498;2024-01-06T13:33:36;13;10;7
68116;PMS7003;54909;54.464;18.498;2024-01-06T13:36:37;5;5;3
68116;PMS7003;54909;54.464;18.498;2024-01-06T13:39:38;5;2;2
68116;PMS7003;54909;54.464;18.498;2024-01-06T13:42:49;9;7;6
68116;PMS7003;54909;54.464;18.498;2024-01-06T13:45:54;18;16;13
68116;PMS7003;54909;54.464;18.498;2024-01-06T13:48:56;5;5;3
68116;PMS7003;54909;54.464;18.498;2024-01-06T13:51:57;13;11;10
68116;PMS7003;54909;54.464;18.498;2024-01-06T13:54:59;7;6;3
68116;PMS7003;54909;54.464;18.498;2024-01-06T13:58:00;15;10;7
68116;PMS7003;54909;54.464;18.498;2024-01-06T14:01:06;16;11;6
68116;PMS7003;54909;54.464;18.498;2024-01-06T14:04:11;12;10;7
68116;PMS7003;54909;54.464;18.498;2024-01-06T14:07:13;10;7;5
68116;PMS7003;54909;54.464;18.498;2024-01-06T14:10:17;13;11;5
68116;PMS7003;54909;54.464;18.498;2024-01-06T14:13:18;7;6;4
68116;PMS7003;54909;54.464;18.498;2024-01-06T14:16:19;13;12;9
68116;PMS7003;54909;54.464;18.498;2024-01-06T14:19:27;6;6;4
68116;PMS7003;54909;54.464;18.498;2024-01-06T14:22:28;8;7;5
68116;PMS7003;54909;54.464;18.498;2024-01-06T14:25:29;8;7;5
68116;PMS7003;54909;54.464;18.498;2024-01-06T14:28:37;6;5;5
68116;PMS7003;54909;54.464;18.498;2024-01-06T14:31:38;8;4;3
68116;PMS7003;54909;54.464;18.498;2024-01-06T14:34:39;8;5;4
68116;PMS7003;54909;54.464;18.498;2024-01-06T14:37:46;4;3;3
68116;PMS7003;54909;54.464;18.498;2024-01-06T14:40:48;4;3;3
68116;PMS7003;54909;54.464;18.498;2024-01-06T14:43:49;6;6;5
68116;PMS7003;54909;54.464;18.498;2024-01-06T14:46:56;6;5;5
68116;PMS7003;54909;54.464;18.498;2024-01-06T14:49:57;6;5;5
68116;PMS7003;54909;54.464;18.498;2024-01-06T14:52:58;8;6;5
68116;PMS7003;54909;54.464;18.498;2024-01-06T14:56:06;4;4;2
68116;PMS7003;54909;54.464;18.498;2024-01-06T14:59:07;5;5;4
68116;PMS7003;54909;54.464;18.498;2024-01-06T15:02:08;6;6;4
68116;PMS7003;54909;54.464;18.498;2024-01-06T15:05:15;9;6;5
68116;PMS7003;54909;54.464;18.498;2024-01-06T15:08:17;9;5;5
68116;PMS7003;54909;54.464;18.498;2024-01-06T15:11:18;6;6;5
68116;PMS7003;54909;54.464;18.498;2024-01-06T15:14:25;5;2;2
68116;PMS7003;54909;54.464;18.498;2024-01-06T15:17:26;6;6;5
68116;PMS7003;54909;54.464;18.498;2024-01-06T15:20:27;4;2;2
68116;PMS7003;54909;54.464;18.498;2024-01-06T15:23:34;3;3;3
68116;PMS7003;54909;54.464;18.498;2024-01-06T15:26:36;7;7;6
68116;PMS7003;54909;54.464;18.498;2024-01-06T15:29:37;7;7;6
68116;PMS7003;54909;54.464;18.498;2024-01-06T15:32:44;9;7;5
68116;PMS7003;54909;54.464;18.498;2024-01-06T15:35:45;9;5;5
68116;PMS7003;54909;54.464;18.498;2024-01-06T15:38:46;5;5;3
68116;PMS7003;54909;54.464;18.498;2024-01-06T15:41:54;8;7;6
68116;PMS7003;54909;54.464;18.498;2024-01-06T15:44:55;14;11;8
68116;PMS7003;54909;54.464;18.498;2024-01-06T15:47:56;10;9;7
68116;PMS7003;54909;54.464;18.498;2024-01-06T15:51:04;5;3;2
68116;PMS7003;54909;54.464;18.498;2024-01-06T15:54:05;3;3;3
68116;PMS7003;54909;54.464;18.498;2024-01-06T15:57:06;7;6;5
68116;PMS7003;54909;54.464;18.498;2024-01-06T16:00:14;7;5;3
68116;PMS7003;54909;54.464;18.498;2024-01-06T16:03:18;7;5;3
68116;PMS7003;54909;54.464;18.498;2024-01-06T16:06:20;10;7;6
68116;PMS7003;54909;54.464;18.498;2024-01-06T16:09:23;9;7;5
68116;PMS7003;54909;54.464;18.498;2024-01-06T16:12:27;5;5;3
68116;PMS7003;54909;54.464;18.498;2024-01-06T16:15:31;8;8;5
68116;PMS7003;54909;54.464;18.498;2024-01-06T16:18:34;5;3;2
68116;PMS7003;54909;54.464;18.498;2024-01-06T16:21:35;2;1;1
68116;PMS7003;54909;54.464;18.498;2024-01-06T16:24:36;2;1;1
68116;PMS7003;54909;54.464;18.498;2024-01-06T16:27:44;6;6;5
68116;PMS7003;54909;54.464;18.498;2024-01-06T16:30:45;6;5;2
68116;PMS7003;54909;54.464;18.498;2024-01-06T16:33:46;4;2;2
68116;PMS7003;54909;54.464;18.498;2024-01-06T16:36:53;5;2;2
68116;PMS7003;54909;54.464;18.498;2024-01-06T16:39:54;2;2;1
68116;PMS7003;54909;54.464;18.498;2024-01-06T16:42:56;2;1;1
68116;PMS7003;54909;54.464;18.498;2024-01-06T16:46:03;0;0;0
68116;PMS7003;54909;54.464;18.498;2024-01-06T16:49:05;2;0;0
68116;PMS7003;54909;54.464;18.498;2024-01-06T16:52:07;0;0;0
68116;PMS7003;54909;54.464;18.498;2024-01-06T16:55:12;1;1;1
68116;PMS7003;54909;54.464;18.498;2024-01-06T16:58:13;9;7;5
68116;PMS7003;54909;54.464;18.498;2024-01-06T17:01:15;4;4;3
68116;PMS7003;54909;54.464;18.498;2024-01-06T17:04:22;4;4;2
68116;PMS7003;54909;54.464;18.498;2024-01-06T17:07:23;2;2;2
68116;PMS7003;54909;54.464;18.498;2024-01-06T17:10:24;4;2;2
68116;PMS7003;54909;54.464;18.498;2024-01-06T17:13:31;5;3;2
68116;PMS7003;54909;54.464;18.498;2024-01-06T17:16:33;2;2;1
68116;PMS7003;54909;54.464;18.498;2024-01-06T17:19:34;1;1;1
68116;PMS7003;54909;54.464;18.498;2024-01-06T17:22:41;2;2;2
68116;PMS7003;54909;54.464;18.498;2024-01-06T17:25:44;3;2;2
68116;PMS7003;54909;54.464;18.498;2024-01-06T17:28:45;6;3;2
68116;PMS7003;54909;54.464;18.498;2024-01-06T17:31:51;2;1;1
68116;PMS7003;54909;54.464;18.498;2024-01-06T17:34:52;1;1;1
68116;PMS7003;54909;54.464;18.498;2024-01-06T17:37:54;6;5;4
68116;PMS7003;54909;54.464;18.498;2024-01-06T17:41:00;7;7;5
68116;PMS7003;54909;54.464;18.498;2024-01-06T17:44:02;12;8;6
68116;PMS7003;54909;54.464;18.498;2024-01-06T17:47:03;5;4;4
68116;PMS7003;54909;54.464;18.498;2024-01-06T17:50:10;6;4;4
68116;PMS7003;54909;54.464;18.498;2024-01-06T17:53:11;1;1;1
68116;PMS7003;54909;54.464;18.498;2024-01-06T17:56:12;2;2;2
68116;PMS7003;54909;54.464;18.498;2024-01-06T17:59:20;2;2;1
68116;PMS7003;54909;54.464;18.498;2024-01-06T18:02:22;1;1;1
68116;PMS7003;54909;54.464;18.498;2024-01-06T18:05:23;2;2;1
68116;PMS7003;54909;54.464;18.498;2024-01-06T18:08:30;3;1;1
68116;PMS7003;54909;54.464;18.498;2024-01-06T18:11:31;5;5;3
68116;PMS7003;54909;54.464;18.498;2024-01-06T18:14:32;6;5;5
68116;PMS7003;54909;54.464;18.498;2024-01-06T18:17:39;3;3;2
68116;PMS7003;54909;54.464;18.498;2024-01-06T18:20:41;4;1;1
68116;PMS7003;54909;54.464;18.498;2024-01-06T18:23:45;2;1;1
68116;PMS7003;54909;54.464;18.498;2024-01-06T18:26:49;7;5;3
68116;PMS7003;54909;54.464;18.498;2024-01-06T18:29:51;3;2;2
68116;PMS7003;54909;54.464;18.498;2024-01-06T18:33:43;2;1;1
68116;PMS7003;54909;54.464;18.498;2024-01-06T18:36:45;3;1;1
68116;PMS7003;54909;54.464;18.498;2024-01-06T18:39:53;2;2;2
68116;PMS7003;54909;54.464;18.498;2024-01-06T18:42:54;2;1;1
68116;PMS7003;54909;54.464;18.498;2024-01-06T18:45:55;5;3;3
68116;PMS7003;54909;54.464;18.498;2024-01-06T18:49:02;10;7;6
68116;PMS7003;54909;54.464;18.498;2024-01-06T18:52:03;10;8;6
68116;PMS7003;54909;54.464;18.498;2024-01-06T18:55:05;11;10;7
68116;PMS7003;54909;54.464;18.498;2024-01-06T18:58:13;12;12;10
68116;PMS7003;54909;54.464;18.498;2024-01-06T19:01:14;10;10;8
68116;PMS7003;54909;54.464;18.498;2024-01-06T19:04:15;13;11;7
68116;PMS7003;54909;54.464;18.498;2024-01-06T19:07:22;12;10;8
68116;PMS7003;54909;54.464;18.498;2024-01-06T19:10:24;9;8;7
68116;PMS7003;54909;54.464;18.498;2024-01-06T19:13:25;8;7;5
68116;PMS7003;54909;54.464;18.498;2024-01-06T19:16:32;4;3;2
68116;PMS7003;54909;54.464;18.498;2024-01-06T19:19:34;2;2;2
68116;PMS7003;54909;54.464;18.498;2024-01-06T19:22:40;2;2;2
68116;PMS7003;54909;54.464;18.498;2024-01-06T19:25:42;5;3;3
68116;PMS7003;54909;54.464;18.498;2024-01-06T19:28:43;15;10;8
68116;PMS7003;54909;54.464;18.498;2024-01-06T19:31:44;12;11;7
68116;PMS7003;54909;54.464;18.498;2024-01-06T19:34:52;11;10;7
68116;PMS7003;54909;54.464;18.498;2024-01-06T19:37:54;20;11;8
68116;PMS7003;54909;54.464;18.498;2024-01-06T19:40:55;16;12;8
68116;PMS7003;54909;54.464;18.498;2024-01-06T19:44:02;14;12;8
68116;PMS7003;54909;54.464;18.498;2024-01-06T19:47:04;11;10;7
68116;PMS7003;54909;54.464;18.498;2024-01-06T19:50:06;12;10;6
68116;PMS7003;54909;54.464;18.498;2024-01-06T19:53:13;12;10;8
68116;PMS7003;54909;54.464;18.498;2024-01-06T19:56:14;11;8;6
68116;PMS7003;54909;54.464;18.498;2024-01-06T19:59:15;12;10;7
68116;PMS7003;54909;54.464;18.498;2024-01-06T20:02:23;9;7;7
68116;PMS7003;54909;54.464;18.498;2024-01-06T20:05:24;11;8;6
68116;PMS7003;54909;54.464;18.498;2024-01-06T20:08:25;18;12;9
68116;PMS7003;54909;54.464;18.498;2024-01-06T20:11:33;22;16;11